createdAt,value
2023-04-17T00:00:39.680Z,67.93
2023-04-17T00:01:39.651Z,66.83
2023-04-17T00:02:39.816Z,66.24
2023-04-17T00:03:39.748Z,67.47
2023-04-17T00:04:39.745Z,67.83
2023-04-17T00:05:39.647Z,68.43
2023-04-17T00:06:39.622Z,67.36
2023-04-17T00:07:39.591Z,65.65
2023-04-17T00:08:39.569Z,66.66
2023-04-17T00:09:39.562Z,68.35
2023-04-17T00:10:39.584Z,66.88
2023-04-17T00:11:39.558Z,68.94
2023-04-17T00:12:39.610Z,67.00
2023-04-17T00:13:39.531Z,66.69
2023-04-17T00:14:39.518Z,67.53
2023-04-17T00:15:39.510Z,67.70
2023-04-17T00:16:39.524Z,67.22
2023-04-17T00:17:39.531Z,67.07
2023-04-17T00:18:39.484Z,67.19
2023-04-17T00:19:39.486Z,66.60
2023-04-17T00:20:39.468Z,66.52
2023-04-17T00:21:39.450Z,65.22
2023-04-17T00:22:39.486Z,63.62
2023-04-17T00:23:39.444Z,66.67
2023-04-17T00:24:39.427Z,68.22
2023-04-17T00:25:39.412Z,68.71
2023-04-17T00:26:39.415Z,67.43
2023-04-17T00:27:39.385Z,67.76
2023-04-17T00:28:39.372Z,69.75
2023-04-17T00:29:39.384Z,68.66
2023-04-17T00:30:39.358Z,67.31
2023-04-17T00:31:39.428Z,66.55
2023-04-17T00:32:39.365Z,67.38
2023-04-17T00:33:39.335Z,68.29
2023-04-17T00:34:39.321Z,68.19
2023-04-17T00:35:39.310Z,66.21
2023-04-17T00:36:39.328Z,66.54
2023-04-17T00:37:39.301Z,68.49
2023-04-17T00:38:39.288Z,68.61
2023-04-17T00:39:39.279Z,67.83
2023-04-17T00:40:39.266Z,68.71
2023-04-17T00:41:39.275Z,66.99
2023-04-17T00:42:39.248Z,64.73
2023-04-17T00:43:39.232Z,65.14
2023-04-17T00:44:40.232Z,67.58
2023-04-17T00:45:39.250Z,68.57
2023-04-17T00:46:39.229Z,69.56
2023-04-17T00:47:39.270Z,68.04
2023-04-17T00:48:39.188Z,68.58
2023-04-17T00:49:39.181Z,68.61
2023-04-17T00:50:39.167Z,67.04
2023-04-17T00:51:39.184Z,66.87
2023-04-17T00:52:39.148Z,69.58
2023-04-17T00:53:39.153Z,67.46
2023-04-17T00:54:39.126Z,68.99
2023-04-17T00:55:39.124Z,70.49
2023-04-17T00:56:39.123Z,68.18
2023-04-17T00:57:39.101Z,68.79
2023-04-17T00:58:39.091Z,69.52
2023-04-17T00:59:39.091Z,68.18
2023-04-17T01:00:39.062Z,70.16
2023-04-17T01:01:39.114Z,68.94
2023-04-17T01:02:39.195Z,68.49
2023-04-17T01:03:39.226Z,69.83
2023-04-17T01:04:39.026Z,66.59
2023-04-17T01:05:39.027Z,67.85
2023-04-17T01:06:39.060Z,67.83
2023-04-17T01:07:39.023Z,68.13
2023-04-17T01:08:38.998Z,68.90
2023-04-17T01:09:38.981Z,66.97
2023-04-17T01:10:38.971Z,68.74
2023-04-17T01:11:38.976Z,69.04
2023-04-17T01:12:38.967Z,68.17
2023-04-17T01:13:38.937Z,68.47
2023-04-17T01:14:38.927Z,67.05
2023-04-17T01:15:38.948Z,68.77
2023-04-17T01:16:38.984Z,69.67
2023-04-17T01:17:38.919Z,67.86
2023-04-17T01:18:38.888Z,69.22
2023-04-17T01:19:38.879Z,68.20
2023-04-17T01:20:38.885Z,68.70
2023-04-17T01:21:38.885Z,68.32
2023-04-17T01:22:38.845Z,68.50
2023-04-17T01:23:38.843Z,70.69
2023-04-17T01:24:38.826Z,67.09
2023-04-17T01:25:38.814Z,68.25
2023-04-17T01:26:38.821Z,68.63
2023-04-17T01:27:38.989Z,67.29
2023-04-17T01:28:38.788Z,68.99
2023-04-17T01:29:38.784Z,70.09
2023-04-17T01:30:38.789Z,71.23
2023-04-17T01:31:38.755Z,69.56
2023-04-17T01:32:38.807Z,68.40
2023-04-17T01:33:38.734Z,68.47
2023-04-17T01:34:38.763Z,68.93
2023-04-17T01:35:38.713Z,69.73
2023-04-17T01:36:38.717Z,70.11
2023-04-17T01:37:38.762Z,68.76
2023-04-17T01:38:38.691Z,70.01
2023-04-17T01:39:38.670Z,69.28
2023-04-17T01:40:38.678Z,69.36
2023-04-17T01:41:38.661Z,68.89
2023-04-17T01:42:38.691Z,69.30
2023-04-17T01:43:38.647Z,70.57
2023-04-17T01:44:38.616Z,70.59
2023-04-17T01:45:39.672Z,69.14
2023-04-17T01:46:38.745Z,69.53
2023-04-17T01:47:38.628Z,71.03
2023-04-17T01:48:38.593Z,68.91
2023-04-17T01:49:38.573Z,70.54
2023-04-17T01:50:38.566Z,67.47
2023-04-17T01:51:38.559Z,66.04
2023-04-17T01:52:38.582Z,68.96
2023-04-17T01:53:38.536Z,68.83
2023-04-17T01:54:38.536Z,69.07
2023-04-17T01:55:38.544Z,71.59
2023-04-17T01:56:38.509Z,69.59
2023-04-17T01:57:38.556Z,70.11
2023-04-17T01:58:38.526Z,69.72
2023-04-17T01:59:38.478Z,67.80
2023-04-17T02:00:38.468Z,70.66
2023-04-17T02:01:38.505Z,71.42
2023-04-17T02:02:38.612Z,70.38
2023-04-17T02:03:38.589Z,71.10
2023-04-17T02:04:38.515Z,69.51
2023-04-17T02:05:38.420Z,70.19
2023-04-17T02:06:38.416Z,70.49
2023-04-17T02:07:38.456Z,70.32
2023-04-17T02:08:38.521Z,71.48
2023-04-17T02:09:38.395Z,71.79
2023-04-17T02:10:38.377Z,72.91
2023-04-17T02:11:38.362Z,71.04
2023-04-17T02:12:38.371Z,72.59
2023-04-17T02:13:38.351Z,71.20
2023-04-17T02:14:38.338Z,69.28
2023-04-17T02:15:38.350Z,69.10
2023-04-17T02:16:38.311Z,71.07
2023-04-17T02:17:38.358Z,68.26
2023-04-17T02:18:38.291Z,70.22
2023-04-17T02:19:38.295Z,69.11
2023-04-17T02:20:38.284Z,70.88
2023-04-17T02:21:38.267Z,69.66
2023-04-17T02:22:38.282Z,69.36
2023-04-17T02:23:38.254Z,71.52
2023-04-17T02:24:38.269Z,70.59
2023-04-17T02:25:38.225Z,72.44
2023-04-17T02:26:38.211Z,70.86
2023-04-17T02:27:38.219Z,71.84
2023-04-17T02:28:38.212Z,68.50
2023-04-17T02:29:38.186Z,71.15
2023-04-17T02:30:38.181Z,69.58
2023-04-17T02:31:38.187Z,71.78
2023-04-17T02:32:38.255Z,70.80
2023-04-17T02:33:38.156Z,72.62
2023-04-17T02:34:38.141Z,71.71
2023-04-17T02:35:38.132Z,69.98
2023-04-17T02:36:38.127Z,70.44
2023-04-17T02:37:38.120Z,71.11
2023-04-17T02:38:38.130Z,69.66
2023-04-17T02:39:38.100Z,71.82
2023-04-17T02:40:38.083Z,72.50
2023-04-17T02:41:38.065Z,72.00
2023-04-17T02:42:38.087Z,70.67
2023-04-17T02:43:38.050Z,71.18
2023-04-17T02:44:38.052Z,69.74
2023-04-17T02:45:38.038Z,69.38
2023-04-17T02:46:38.064Z,70.57
2023-04-17T02:47:38.073Z,71.64
2023-04-17T02:48:37.998Z,72.56
2023-04-17T02:49:37.995Z,73.16
2023-04-17T02:50:37.973Z,71.90
2023-04-17T02:51:37.961Z,73.24
2023-04-17T02:52:38.008Z,72.13
2023-04-17T02:53:37.945Z,73.22
2023-04-17T02:54:37.945Z,71.19
2023-04-17T02:55:37.926Z,73.35
2023-04-17T02:56:37.934Z,72.82
2023-04-17T02:57:37.905Z,72.26
2023-04-17T02:58:37.902Z,70.71
2023-04-17T02:59:37.902Z,70.64
2023-04-17T03:00:37.916Z,72.42
2023-04-17T03:01:37.886Z,72.45
2023-04-17T03:02:38.122Z,72.33
2023-04-17T03:03:38.140Z,73.14
2023-04-17T03:04:37.838Z,71.39
2023-04-17T03:05:37.833Z,71.02
2023-04-17T03:06:37.814Z,71.10
2023-04-17T03:07:37.829Z,72.22
2023-04-17T03:08:37.807Z,72.96
2023-04-17T03:09:37.794Z,72.65
2023-04-17T03:10:37.783Z,72.78
2023-04-17T03:11:38.772Z,73.08
2023-04-17T03:12:37.777Z,73.14
2023-04-17T03:13:37.757Z,73.65
2023-04-17T03:14:37.764Z,71.76
2023-04-17T03:15:37.729Z,73.08
2023-04-17T03:16:37.753Z,72.82
2023-04-17T03:17:37.838Z,72.56
2023-04-17T03:18:37.697Z,72.72
2023-04-17T03:19:37.697Z,72.44
2023-04-17T03:20:37.685Z,73.14
2023-04-17T03:21:37.666Z,73.61
2023-04-17T03:22:37.696Z,71.75
2023-04-17T03:23:37.666Z,73.25
2023-04-17T03:24:37.671Z,73.13
2023-04-17T03:25:37.646Z,73.73
2023-04-17T03:26:37.631Z,73.73
2023-04-17T03:27:37.638Z,72.95
2023-04-17T03:28:37.662Z,73.43
2023-04-17T03:29:37.595Z,72.43
2023-04-17T03:30:37.593Z,72.71
2023-04-17T03:31:37.615Z,74.40
2023-04-17T03:32:37.625Z,71.90
2023-04-17T03:33:37.557Z,74.75
2023-04-17T03:34:37.555Z,74.79
2023-04-17T03:35:37.539Z,73.68
2023-04-17T03:36:37.539Z,73.16
2023-04-17T03:37:37.549Z,73.36
2023-04-17T03:38:37.519Z,72.76
2023-04-17T03:39:37.503Z,72.83
2023-04-17T03:40:37.494Z,74.10
2023-04-17T03:41:37.476Z,73.01
2023-04-17T03:42:38.549Z,73.74
2023-04-17T03:43:37.461Z,74.19
2023-04-17T03:44:37.465Z,75.64
2023-04-17T03:45:37.474Z,73.91
2023-04-17T03:46:37.436Z,74.34
2023-04-17T03:47:37.507Z,72.82
2023-04-17T03:48:37.412Z,74.97
2023-04-17T03:49:37.402Z,73.06
2023-04-17T03:50:37.397Z,73.46
2023-04-17T03:51:37.395Z,73.97
2023-04-17T03:52:37.406Z,73.09
2023-04-17T03:53:37.371Z,73.32
2023-04-17T03:54:37.374Z,74.75
2023-04-17T03:55:37.350Z,74.97
2023-04-17T03:56:37.363Z,74.79
2023-04-17T03:57:37.359Z,73.79
2023-04-17T03:58:37.319Z,73.71
2023-04-17T03:59:37.305Z,73.80
2023-04-17T04:00:37.289Z,75.00
2023-04-17T04:01:37.295Z,75.00
2023-04-17T04:02:37.419Z,74.51
2023-04-17T04:03:37.509Z,74.61
2023-04-17T04:04:37.472Z,74.58
2023-04-17T04:05:37.243Z,74.18
2023-04-17T04:06:37.229Z,75.35
2023-04-17T04:07:37.246Z,74.25
2023-04-17T04:08:38.220Z,74.89
2023-04-17T04:09:37.209Z,74.71
2023-04-17T04:10:37.209Z,75.36
2023-04-17T04:11:37.187Z,75.36
2023-04-17T04:12:37.258Z,74.31
2023-04-17T04:13:37.174Z,74.24
2023-04-17T04:14:38.201Z,73.44
2023-04-17T04:15:37.224Z,75.44
2023-04-17T04:16:37.289Z,75.67
2023-04-17T04:17:37.188Z,73.58
2023-04-17T04:18:37.133Z,74.40
2023-04-17T04:19:37.136Z,73.80
2023-04-17T04:20:37.092Z,74.11
2023-04-17T04:21:37.084Z,74.38
2023-04-17T04:22:37.076Z,74.31
2023-04-17T04:23:37.047Z,73.80
2023-04-17T04:24:37.049Z,74.27
2023-04-17T04:25:37.027Z,74.35
2023-04-17T04:26:37.046Z,73.01
2023-04-17T04:27:37.043Z,72.71
2023-04-17T04:28:37.005Z,73.43
2023-04-17T04:29:36.988Z,73.95
2023-04-17T04:30:36.982Z,74.66
2023-04-17T04:31:37.045Z,73.84
2023-04-17T04:32:37.006Z,73.52
2023-04-17T04:33:36.983Z,73.22
2023-04-17T04:34:36.952Z,73.26
2023-04-17T04:35:38.395Z,72.88
2023-04-17T04:36:36.921Z,72.30
2023-04-17T04:37:36.944Z,73.34
2023-04-17T04:38:36.950Z,73.79
2023-04-17T04:39:36.892Z,73.33
2023-04-17T04:40:36.885Z,72.66
2023-04-17T04:41:36.870Z,72.93
2023-04-17T04:42:36.897Z,73.86
2023-04-17T04:43:36.855Z,73.12
2023-04-17T04:44:36.847Z,72.65
2023-04-17T04:45:36.844Z,72.77
2023-04-17T04:46:36.924Z,73.63
2023-04-17T04:47:36.896Z,73.93
2023-04-17T04:48:36.804Z,73.04
2023-04-17T04:49:36.799Z,73.04
2023-04-17T04:50:36.785Z,73.52
2023-04-17T04:51:36.768Z,74.01
2023-04-17T04:52:36.775Z,74.26
2023-04-17T04:53:36.781Z,73.15
2023-04-17T04:54:36.749Z,73.58
2023-04-17T04:55:36.739Z,73.89
2023-04-17T04:56:36.726Z,73.54
2023-04-17T04:57:36.745Z,72.44
2023-04-17T04:58:36.705Z,74.64
2023-04-17T04:59:38.859Z,74.92
2023-04-17T05:00:37.684Z,74.56
2023-04-17T05:01:36.781Z,74.36
2023-04-17T05:02:36.937Z,74.29
2023-04-17T05:03:36.992Z,74.41
2023-04-17T05:04:36.729Z,74.49
2023-04-17T05:05:36.638Z,73.03
2023-04-17T05:06:36.630Z,73.63
2023-04-17T05:07:36.652Z,74.09
2023-04-17T05:08:36.606Z,74.54
2023-04-17T05:09:36.626Z,74.48
2023-04-17T05:10:36.605Z,74.26
2023-04-17T05:11:36.575Z,74.15
2023-04-17T05:12:36.596Z,73.54
2023-04-17T05:13:36.564Z,74.70
2023-04-17T05:14:36.555Z,74.47
2023-04-17T05:15:36.539Z,73.69
2023-04-17T05:16:36.586Z,74.02
2023-04-17T05:17:36.603Z,74.52
2023-04-17T05:18:36.516Z,74.49
2023-04-17T05:19:36.507Z,73.26
2023-04-17T05:20:36.494Z,74.76
2023-04-17T05:21:36.498Z,73.70
2023-04-17T05:22:36.498Z,75.07
2023-04-17T05:23:36.467Z,75.07
2023-04-17T05:24:36.453Z,72.80
2023-04-17T05:25:36.460Z,73.77
2023-04-17T05:26:36.436Z,74.05
2023-04-17T05:27:36.491Z,73.67
2023-04-17T05:28:36.416Z,73.16
2023-04-17T05:29:36.402Z,72.73
2023-04-17T05:30:36.427Z,73.85
2023-04-17T05:31:36.529Z,73.99
2023-04-17T05:32:36.404Z,73.54
2023-04-17T05:33:36.371Z,73.56
2023-04-17T05:34:36.398Z,74.48
2023-04-17T05:35:36.342Z,74.06
2023-04-17T05:36:36.334Z,73.34
2023-04-17T05:37:36.345Z,73.66
2023-04-17T05:38:36.314Z,73.85
2023-04-17T05:39:36.305Z,74.60
2023-04-17T05:40:36.300Z,73.73
2023-04-17T05:41:36.283Z,73.38
2023-04-17T05:42:36.297Z,73.34
2023-04-17T05:43:36.259Z,73.40
2023-04-17T05:44:36.255Z,73.62
2023-04-17T05:45:36.262Z,74.70
2023-04-17T05:46:36.230Z,73.86
2023-04-17T05:47:36.260Z,73.39
2023-04-17T05:48:36.209Z,73.29
2023-04-17T05:49:36.200Z,74.99
2023-04-17T05:50:36.188Z,73.63
2023-04-17T05:51:36.197Z,73.75
2023-04-17T05:52:37.992Z,74.57
2023-04-17T05:53:36.175Z,74.04
2023-04-17T05:54:36.161Z,74.35
2023-04-17T05:55:36.149Z,73.67
2023-04-17T05:56:36.155Z,73.04
2023-04-17T05:57:36.137Z,73.76
2023-04-17T05:58:36.132Z,73.87
2023-04-17T05:59:36.128Z,73.06
2023-04-17T06:00:36.108Z,73.22
2023-04-17T06:01:36.089Z,71.92
2023-04-17T06:02:36.178Z,73.82
2023-04-17T06:03:36.145Z,73.26
2023-04-17T06:04:36.361Z,71.57
2023-04-17T06:05:36.091Z,73.13
2023-04-17T06:06:36.049Z,72.04
2023-04-17T06:07:36.057Z,73.47
2023-04-17T06:08:36.023Z,72.13
2023-04-17T06:09:36.007Z,72.50
2023-04-17T06:10:35.997Z,73.96
2023-04-17T06:11:35.993Z,74.83
2023-04-17T06:12:36.018Z,74.02
2023-04-17T06:13:35.981Z,73.51
2023-04-17T06:14:35.968Z,73.82
2023-04-17T06:15:36.950Z,74.29
2023-04-17T06:16:36.075Z,72.96
2023-04-17T06:17:35.974Z,72.15
2023-04-17T06:18:35.914Z,73.65
2023-04-17T06:19:35.903Z,72.85
2023-04-17T06:20:37.321Z,73.65
2023-04-17T06:21:36.887Z,72.81
2023-04-17T06:22:35.914Z,72.58
2023-04-17T06:23:35.946Z,73.09
2023-04-17T06:24:35.865Z,73.70
2023-04-17T06:25:35.870Z,73.81
2023-04-17T06:26:35.841Z,73.54
2023-04-17T06:28:07.759Z,73.60
2023-04-17T06:28:35.840Z,73.78
2023-04-17T06:29:35.817Z,72.36
2023-04-17T06:30:35.921Z,73.53
2023-04-17T06:31:35.852Z,73.84
2023-04-17T06:32:35.840Z,73.66
2023-04-17T06:33:35.785Z,72.99
2023-04-17T06:34:38.170Z,73.54
2023-04-17T06:35:36.783Z,72.84
2023-04-17T06:36:35.747Z,73.71
2023-04-17T06:37:35.782Z,73.29
2023-04-17T06:38:35.760Z,72.83
2023-04-17T06:39:35.709Z,73.46
2023-04-17T06:40:35.711Z,73.20
2023-04-17T06:41:35.705Z,74.14
2023-04-17T06:42:35.843Z,72.97
2023-04-17T06:43:35.702Z,72.86
2023-04-17T06:44:35.664Z,73.58
2023-04-17T06:45:35.666Z,71.76
2023-04-17T06:46:35.668Z,72.39
2023-04-17T06:47:35.729Z,73.01
2023-04-17T06:48:35.628Z,73.20
2023-04-17T06:49:35.623Z,73.27
2023-04-17T06:50:35.610Z,74.37
2023-04-17T06:51:35.594Z,74.19
2023-04-17T06:52:35.621Z,74.41
2023-04-17T06:53:35.588Z,72.79
2023-04-17T06:54:35.589Z,73.37
2023-04-17T06:55:35.556Z,73.75
2023-04-17T06:56:35.547Z,72.22
2023-04-17T06:57:35.590Z,72.93
2023-04-17T06:58:35.533Z,73.26
2023-04-17T06:59:35.519Z,73.64
2023-04-17T07:00:35.513Z,73.92
2023-04-17T07:01:35.550Z,72.43
2023-04-17T07:02:35.605Z,73.31
2023-04-17T07:03:36.467Z,72.24
2023-04-17T07:04:35.562Z,73.89
2023-04-17T07:05:35.473Z,73.57
2023-04-17T07:06:35.447Z,72.33
2023-04-17T07:07:35.461Z,73.40
2023-04-17T07:08:35.453Z,71.97
2023-04-17T07:09:35.431Z,73.39
2023-04-17T07:10:35.406Z,72.90
2023-04-17T07:11:35.410Z,72.17
2023-04-17T07:12:35.731Z,72.29
2023-04-17T07:13:35.371Z,72.28
2023-04-17T07:14:35.387Z,71.62
2023-04-17T07:15:35.422Z,70.74
2023-04-17T07:16:35.388Z,71.55
2023-04-17T07:17:35.351Z,72.14
2023-04-17T07:18:35.353Z,71.38
2023-04-17T07:19:35.329Z,72.05
2023-04-17T07:20:35.301Z,70.89
2023-04-17T07:21:35.293Z,71.42
2023-04-17T07:22:35.336Z,71.24
2023-04-17T07:23:35.299Z,72.33
2023-04-17T07:24:35.273Z,72.91
2023-04-17T07:25:35.266Z,72.11
2023-04-17T07:26:35.243Z,72.26
2023-04-17T07:27:35.246Z,71.81
2023-04-17T07:28:35.328Z,72.78
2023-04-17T07:29:35.296Z,72.17
2023-04-17T07:30:35.219Z,72.15
2023-04-17T07:31:35.324Z,74.18
2023-04-17T07:32:35.309Z,72.00
2023-04-17T07:33:35.217Z,73.87
2023-04-17T07:34:35.176Z,71.86
2023-04-17T07:35:35.171Z,71.28
2023-04-17T07:36:35.143Z,71.29
2023-04-17T07:37:35.131Z,72.03
2023-04-17T07:38:35.137Z,71.45
2023-04-17T07:39:35.116Z,71.61
2023-04-17T07:40:35.845Z,71.05
2023-04-17T07:41:35.093Z,72.22
2023-04-17T07:42:36.089Z,71.54
2023-04-17T07:43:35.088Z,71.46
2023-04-17T07:44:35.069Z,73.76
2023-04-17T07:45:35.054Z,72.53
2023-04-17T07:46:35.066Z,71.08
2023-04-17T07:47:35.082Z,73.09
2023-04-17T07:48:35.041Z,72.95
2023-04-17T07:49:36.017Z,71.67
2023-04-17T07:50:35.014Z,72.49
2023-04-17T07:51:35.017Z,72.19
2023-04-17T07:52:35.053Z,71.77
2023-04-17T07:53:35.178Z,71.34
2023-04-17T07:54:34.991Z,72.60
2023-04-17T07:55:34.949Z,72.01
2023-04-17T07:56:34.961Z,70.48
2023-04-17T07:57:34.987Z,72.95
2023-04-17T07:58:34.937Z,72.44
2023-04-17T07:59:34.919Z,70.78
2023-04-17T08:00:34.918Z,70.39
2023-04-17T08:01:34.890Z,71.34
2023-04-17T08:02:34.970Z,70.62
2023-04-17T08:03:35.237Z,72.52
2023-04-17T08:04:34.968Z,71.63
2023-04-17T08:05:34.881Z,70.48
2023-04-17T08:06:34.848Z,71.41
2023-04-17T08:07:34.849Z,70.56
2023-04-17T08:08:34.852Z,70.28
2023-04-17T08:09:34.821Z,69.30
2023-04-17T08:10:34.831Z,72.30
2023-04-17T08:11:42.703Z,72.26
2023-04-17T08:12:36.828Z,71.09
2023-04-17T08:13:34.818Z,69.86
2023-04-17T08:14:34.772Z,70.96
2023-04-17T08:15:34.794Z,71.65
2023-04-17T08:16:34.769Z,71.18
2023-04-17T08:17:34.777Z,70.80
2023-04-17T08:18:34.743Z,71.07
2023-04-17T08:19:34.716Z,69.75
2023-04-17T08:20:34.727Z,68.66
2023-04-17T08:21:34.756Z,71.79
2023-04-17T08:22:34.745Z,70.12
2023-04-17T08:23:34.719Z,70.06
2023-04-17T08:24:34.708Z,70.75
2023-04-17T08:25:34.672Z,69.61
2023-04-17T08:26:34.665Z,70.00
2023-04-17T08:27:34.640Z,68.45
2023-04-17T08:28:34.648Z,67.55
2023-04-17T08:29:34.634Z,70.68
2023-04-17T08:30:34.659Z,70.07
2023-04-17T08:31:34.596Z,71.84
2023-04-17T08:32:34.622Z,69.83
2023-04-17T08:33:34.598Z,72.13
2023-04-17T08:34:34.572Z,70.59
2023-04-17T08:35:34.580Z,68.38
2023-04-17T08:36:34.555Z,71.04
2023-04-17T08:37:34.536Z,70.43
2023-04-17T08:38:34.540Z,69.27
2023-04-17T08:39:34.526Z,67.43
2023-04-17T08:40:34.517Z,70.58
2023-04-17T08:41:34.496Z,71.49
2023-04-17T08:42:34.491Z,69.89
2023-04-17T08:43:34.510Z,71.03
2023-04-17T08:44:34.494Z,68.16
2023-04-17T08:45:34.463Z,68.89
2023-04-17T08:46:34.580Z,70.15
2023-04-17T08:47:34.463Z,69.57
2023-04-17T08:48:34.895Z,69.97
2023-04-17T08:49:34.416Z,70.19
2023-04-17T08:50:34.410Z,69.93
2023-04-17T08:51:34.413Z,69.59
2023-04-17T08:52:34.388Z,69.20
2023-04-17T08:53:34.397Z,71.27
2023-04-17T08:54:34.365Z,70.11
2023-04-17T08:55:34.361Z,71.25
2023-04-17T08:56:34.356Z,71.10
2023-04-17T08:57:34.330Z,69.93
2023-04-17T08:58:34.359Z,71.30
2023-04-17T08:59:34.325Z,69.29
2023-04-17T09:00:34.304Z,69.29
2023-04-17T09:01:34.501Z,70.03
2023-04-17T09:02:34.401Z,68.57
2023-04-17T09:03:34.377Z,69.44
2023-04-17T09:04:34.470Z,71.46
2023-04-17T09:05:34.254Z,68.69
2023-04-17T09:06:34.236Z,69.65
2023-04-17T09:07:34.230Z,69.00
2023-04-17T09:08:34.234Z,70.08
2023-04-17T09:09:34.276Z,67.61
2023-04-17T09:10:34.202Z,68.84
2023-04-17T09:11:34.288Z,68.72
2023-04-17T09:12:34.188Z,68.25
2023-04-17T09:13:34.189Z,69.90
2023-04-17T09:14:34.179Z,68.43
2023-04-17T09:15:34.170Z,68.91
2023-04-17T09:16:34.255Z,68.50
2023-04-17T09:17:34.152Z,69.11
2023-04-17T09:18:34.136Z,69.74
2023-04-17T09:19:35.273Z,70.11
2023-04-17T09:20:35.099Z,70.58
2023-04-17T09:21:34.110Z,71.42
2023-04-17T09:22:34.090Z,70.75
2023-04-17T09:23:34.084Z,68.58
2023-04-17T09:24:34.079Z,70.74
2023-04-17T09:25:34.078Z,70.46
2023-04-17T09:26:34.048Z,67.40
2023-04-17T09:27:34.031Z,71.73
2023-04-17T09:28:34.041Z,70.80
2023-04-17T09:29:34.062Z,68.86
2023-04-17T09:30:33.991Z,68.82
2023-04-17T09:31:34.062Z,70.36
2023-04-17T09:32:34.160Z,70.34
2023-04-17T09:33:33.987Z,71.47
2023-04-17T09:34:33.955Z,70.27
2023-04-17T09:35:33.945Z,68.81
2023-04-17T09:36:34.025Z,70.75
2023-04-17T09:37:33.945Z,69.87
2023-04-17T09:38:33.969Z,69.16
2023-04-17T09:39:33.957Z,70.32
2023-04-17T09:40:33.888Z,70.10
2023-04-17T09:41:33.954Z,68.73
2023-04-17T09:42:33.901Z,70.21
2023-04-17T09:43:33.875Z,68.85
2023-04-17T09:44:33.882Z,67.58
2023-04-17T09:45:33.847Z,68.68
2023-04-17T09:46:33.981Z,71.12
2023-04-17T09:47:33.859Z,71.04
2023-04-17T09:48:33.841Z,69.33
2023-04-17T09:49:33.884Z,69.49
2023-04-17T09:50:34.696Z,71.03
2023-04-17T09:51:33.786Z,70.57
2023-04-17T09:52:33.939Z,70.78
2023-04-17T09:53:33.772Z,70.95
2023-04-17T09:54:33.759Z,72.31
2023-04-17T09:55:33.762Z,70.89
2023-04-17T09:56:33.755Z,69.10
2023-04-17T09:57:33.753Z,70.35
2023-04-17T09:58:33.719Z,71.08
2023-04-17T09:59:33.707Z,67.16
2023-04-17T10:00:33.712Z,68.83
2023-04-17T10:01:33.684Z,69.69
2023-04-17T10:02:33.901Z,70.02
2023-04-17T10:03:36.637Z,68.62
2023-04-17T10:04:34.692Z,71.09
2023-04-17T10:05:33.660Z,70.95
2023-04-17T10:06:33.627Z,68.66
2023-04-17T10:07:33.623Z,67.03
2023-04-17T10:08:33.637Z,69.20
2023-04-17T10:09:33.602Z,69.66
2023-04-17T10:10:33.976Z,67.14
2023-04-17T10:11:33.586Z,67.66
2023-04-17T10:12:34.909Z,69.26
2023-04-17T10:13:33.592Z,68.31
2023-04-17T10:14:33.562Z,68.10
2023-04-17T10:15:33.541Z,69.97
2023-04-17T10:16:33.617Z,66.33
2023-04-17T10:17:33.555Z,71.16
2023-04-17T10:18:33.552Z,70.65
2023-04-17T10:19:33.497Z,68.55
2023-04-17T10:20:33.497Z,71.13
2023-04-17T10:21:33.487Z,70.58
2023-04-17T10:22:33.480Z,69.76
2023-04-17T10:23:33.608Z,69.18
2023-04-17T10:24:33.520Z,70.72
2023-04-17T10:25:33.446Z,69.11
2023-04-17T10:26:33.444Z,68.82
2023-04-17T10:27:33.460Z,68.70
2023-04-17T10:28:33.486Z,69.74
2023-04-17T10:29:33.400Z,68.94
2023-04-17T10:30:33.425Z,69.86
2023-04-17T10:31:33.438Z,68.78
2023-04-17T10:32:33.396Z,67.59
2023-04-17T10:33:33.394Z,69.10
2023-04-17T10:34:33.355Z,69.68
2023-04-17T10:35:33.369Z,70.15
2023-04-17T10:36:33.350Z,69.62
2023-04-17T10:37:33.341Z,69.39
2023-04-17T10:38:33.384Z,68.12
2023-04-17T10:39:33.311Z,69.25
2023-04-17T10:40:33.498Z,70.07
2023-04-17T10:41:33.287Z,70.59
2023-04-17T10:42:33.285Z,66.18
2023-04-17T10:43:33.306Z,67.33
2023-04-17T10:44:33.272Z,68.63
2023-04-17T10:45:33.264Z,69.50
2023-04-17T10:46:33.352Z,67.96
2023-04-17T10:47:33.261Z,66.66
2023-04-17T10:48:33.388Z,67.77
2023-04-17T10:49:33.210Z,67.93
2023-04-17T10:50:33.211Z,68.28
2023-04-17T10:51:33.187Z,67.73
2023-04-17T10:52:33.218Z,67.28
2023-04-17T10:53:33.186Z,67.38
2023-04-17T10:54:33.159Z,69.96
2023-04-17T10:55:33.142Z,70.08
2023-04-17T10:56:33.146Z,70.22
2023-04-17T10:57:33.151Z,69.73
2023-04-17T10:58:33.175Z,68.56
2023-04-17T10:59:33.110Z,68.19
2023-04-17T11:00:33.104Z,68.84
2023-04-17T11:01:33.133Z,69.47
2023-04-17T11:02:33.124Z,70.54
2023-04-17T11:03:33.118Z,70.29
2023-04-17T11:04:33.188Z,70.22
2023-04-17T11:05:33.070Z,72.31
2023-04-17T11:06:33.089Z,71.43
2023-04-17T11:07:33.022Z,71.08
2023-04-17T11:08:33.072Z,70.08
2023-04-17T11:09:33.009Z,69.76
2023-04-17T11:10:32.999Z,68.12
2023-04-17T11:11:43.635Z,70.37
2023-04-17T11:12:35.085Z,70.37
2023-04-17T11:13:32.981Z,71.90
2023-04-17T11:14:33.008Z,71.18
2023-04-17T11:15:32.942Z,67.83
2023-04-17T11:16:33.016Z,69.52
2023-04-17T11:17:32.964Z,70.41
2023-04-17T11:18:32.940Z,70.80
2023-04-17T11:19:32.912Z,70.53
2023-04-17T11:20:32.898Z,70.89
2023-04-17T11:21:32.909Z,72.13
2023-04-17T11:22:32.875Z,72.00
2023-04-17T11:23:32.943Z,71.30
2023-04-17T11:24:32.902Z,70.71
2023-04-17T11:25:32.849Z,70.10
2023-04-17T11:26:32.848Z,71.36
2023-04-17T11:27:32.895Z,67.78
2023-04-17T11:28:32.837Z,68.68
2023-04-17T11:29:32.823Z,69.32
2023-04-17T11:30:32.806Z,69.89
2023-04-17T11:31:32.817Z,71.89
2023-04-17T11:32:32.840Z,72.11
2023-04-17T11:33:32.795Z,70.36
2023-04-17T11:34:32.779Z,69.92
2023-04-17T11:35:32.770Z,72.40
2023-04-17T11:36:32.758Z,70.66
2023-04-17T11:37:32.732Z,70.71
2023-04-17T11:38:32.771Z,69.95
2023-04-17T11:39:32.709Z,69.33
2023-04-17T11:40:32.707Z,69.34
2023-04-17T11:41:32.695Z,70.77
2023-04-17T11:42:32.682Z,71.34
2023-04-17T11:43:32.689Z,69.77
2023-04-17T11:44:32.656Z,70.24
2023-04-17T11:45:33.649Z,70.55
2023-04-17T11:46:32.681Z,71.57
2023-04-17T11:47:32.657Z,70.03
2023-04-17T11:48:32.663Z,68.84
2023-04-17T11:49:32.623Z,69.91
2023-04-17T11:50:32.595Z,69.65
2023-04-17T11:51:32.576Z,70.82
2023-04-17T11:52:32.569Z,68.48
2023-04-17T11:53:32.602Z,68.03
2023-04-17T11:54:32.552Z,66.37
2023-04-17T11:55:32.541Z,69.48
2023-04-17T11:56:32.540Z,71.30
2023-04-17T11:57:32.519Z,71.42
2023-04-17T11:58:32.551Z,70.91
2023-04-17T11:59:32.503Z,69.12
2023-04-17T12:00:32.516Z,70.02
2023-04-17T12:01:32.483Z,70.05
2023-04-17T12:02:32.567Z,71.51
2023-04-17T12:03:32.642Z,69.71
2023-04-17T12:04:32.562Z,70.09
2023-04-17T12:05:32.557Z,70.75
2023-04-17T12:06:32.440Z,69.41
2023-04-17T12:07:32.436Z,69.56
2023-04-17T12:08:32.538Z,70.17
2023-04-17T12:09:32.507Z,67.53
2023-04-17T12:10:32.451Z,70.85
2023-04-17T12:11:32.434Z,73.30
2023-04-17T12:12:32.376Z,71.55
2023-04-17T12:13:32.399Z,75.17
2023-04-17T12:14:32.403Z,72.29
2023-04-17T12:15:32.354Z,72.58
2023-04-17T12:16:32.453Z,71.62
2023-04-17T12:17:32.411Z,70.28
2023-04-17T12:18:32.389Z,75.70
2023-04-17T12:19:32.312Z,72.35
2023-04-17T12:20:32.297Z,72.94
2023-04-17T12:21:32.292Z,74.73
2023-04-17T12:22:32.272Z,75.85
2023-04-17T12:23:32.315Z,75.62
2023-04-17T12:24:32.291Z,76.63
2023-04-17T12:25:32.247Z,76.55
2023-04-17T12:26:32.232Z,68.71
2023-04-17T12:29:45.696Z,75.61
2023-04-17T12:30:45.677Z,75.24
2023-04-17T12:31:45.750Z,76.71
2023-04-17T12:32:45.697Z,70.22
2023-04-17T12:33:45.665Z,76.76
2023-04-17T12:34:45.629Z,77.13
2023-04-17T12:35:45.621Z,75.29
2023-04-17T12:36:45.604Z,71.81
2023-04-17T12:37:45.597Z,72.25
2023-04-17T12:38:45.617Z,71.62
2023-04-17T12:39:45.574Z,69.53
2023-04-17T12:40:45.584Z,69.85
2023-04-17T12:41:45.558Z,70.89
2023-04-17T12:42:49.168Z,70.52
2023-04-17T12:43:45.563Z,71.65
2023-04-17T12:44:45.529Z,69.94
2023-04-17T12:45:45.690Z,71.25
2023-04-17T12:46:45.507Z,73.23
2023-04-17T12:47:45.511Z,72.78
2023-04-17T12:48:45.510Z,70.64
2023-04-17T12:49:45.615Z,70.36
2023-04-17T12:50:45.468Z,71.54
2023-04-17T12:51:45.456Z,70.99
2023-04-17T12:52:45.455Z,72.63
2023-04-17T12:53:45.433Z,72.89
2023-04-17T12:54:45.449Z,77.77